Latest Weather Observations for Tunnack

IDT60801

Issued at 5:32 pm EDT Saturday 25 February 2017 (issued every 30 minutes, with the page automatically refreshed every 10 minutes)

About weather observations | Map of weather stations | Latest weather observations for TAS | Other Formats
Station Details ID: 094195 Name: TUNNACK FIRE STATION Lat: -42.45 Lon: 147.46 Height: 461.5 m
Data from the previous 72 hours. | See also: Recent months at Tunnack
Date/Time
EDT
Temp
°C
App
Temp
°C
Dew
Point
°C
Rel
Hum
%
Delta-T
°C
Wind Press
QNH
hPa
Press
MSL
hPa
Rain since
9am
mm
Dir  Spd
km/h
Gust
km/h
Spd
kts
Gust
kts
25/05:30pm 16.2 11.1 3.3 42 6.0 NE 19 28 10 15 1024.9 1024.1 0.0
25/05:00pm 17.5 13.5 3.0 38 6.8 ENE 13 24 7 13 1024.8 1024.0 0.0
25/04:30pm 18.0 13.5 2.3 35 7.3 ENE 15 22 8 12 1024.8 1024.0 0.0
25/04:00pm 18.8 15.2 -2.2 24 9.0 SSW 7 13 4 7 1024.8 1024.0 0.0
25/03:30pm 18.6 14.7 -1.3 26 8.7 WSW 9 17 5 9 1024.9 1024.1 0.0
25/03:00pm 17.3 13.3 -1.9 27 8.1 SE 9 17 5 9 1025.3 1024.5 0.0
25/02:30pm 18.5 13.7 0.2 29 8.2 W 15 22 8 12 1025.6 1024.8 0.0
25/02:00pm 16.8 13.4 -0.4 31 7.5 E 7 13 4 7 1025.8 1025.0 0.0
25/01:30pm 17.0 13.3 -0.2 31 7.6 SE 9 19 5 10 1025.9 1025.2 0.0
25/01:00pm 15.4 11.5 -1.2 32 7.0 SW 9 15 5 8 1026.4 1025.6 0.0
25/12:30pm 15.0 10.7 1.2 39 6.1 NW 13 20 7 11 1026.5 1025.7 0.0
25/12:00pm 13.8 10.2 0.5 40 5.7 SE 9 15 5 8 1026.6 1025.8 0.0
25/11:30am 13.1 9.6 1.1 44 5.2 E 9 13 5 7 1026.9 1026.1 0.0
25/11:00am 13.6 10.2 1.6 44 5.3 SW 9 13 5 7 1027.2 1026.4 0.0
25/10:30am 11.8 8.8 1.7 50 4.4 SW 7 15 4 8 1027.2 1026.4 0.0
25/10:00am 11.0 7.2 1.8 53 4.0 SSW 11 19 6 10 1027.3 1026.5 0.0
25/09:30am 10.6 7.7 2.7 58 3.5 SSW 7 13 4 7 1027.4 1026.6 0.0
25/09:00am 8.4 6.4 4.6 77 1.7 NW 4 7 2 4 1027.3 1026.5 0.0
25/08:30am 5.9 3.1 3.4 84 1.1 E 7 9 4 5 1027.2 1026.4 0.0
25/08:00am 3.5 1.6 2.9 96 0.2 ESE 2 7 1 4 1027.0 1026.2 0.0
25/07:30am 1.4 -1.6 0.7 95 0.3 ESE 6 7 3 4 1026.9 1026.1 0.0
25/07:00am 2.0 -0.9 1.3 95 0.3 ESE 6 7 3 4 1026.5 1025.7 0.0
25/06:30am 1.2 -2.1 0.3 94 0.3 ESE 7 7 4 4 1026.3 1025.5 0.0
25/06:00am 1.4 -1.9 0.2 92 0.5 ESE 7 9 4 5 1025.9 1025.2 0.0
25/05:30am 2.3 -1.3 0.4 87 0.7 WNW 9 11 5 6 1025.7 1024.9 0.0
25/05:00am 4.6 1.5 3.4 92 0.5 WNW 9 13 5 7 1025.5 1024.7 0.0
25/04:30am 4.5 1.4 3.5 93 0.4 W 9 13 5 7 1025.4 1024.6 0.0
25/04:00am 2.8 1.0 1.3 90 0.6 CALM 0 6 0 3 1025.4 1024.6 0.0
25/03:30am 3.0 0.3 0.2 82 1.1 NNW 4 9 2 5 1025.3 1024.5 0.0
25/03:00am 4.2 1.4 1.9 85 0.9 NNE 6 11 3 6 1025.1 1024.3 0.0
25/02:30am 3.9 0.8 1.1 82 1.1 SSE 7 9 4 5 1025.1 1024.3 0.0
25/02:00am 4.7 1.9 2.1 83 1.1 ESE 6 7 3 4 1025.1 1024.3 0.0
25/01:30am 4.8 0.6 1.7 80 1.3 WNW 13 17 7 9 1025.0 1024.2 0.0
25/01:00am 6.0 2.6 2.1 76 1.6 SW 9 11 5 6 1025.0 1024.2 0.0
25/12:30am 7.2 4.4 3.3 76 1.7 WNW 7 11 4 6 1024.9 1024.1 0.0
25/12:00am 7.2 3.9 2.5 72 2.0 SW 9 13 5 7 1024.8 1024.0 0.0
 
Date/Time
EDT
Temp
°C
App
Temp
°C
Dew
Point
°C
Rel
Hum
%
Delta-T
°C
Wind Press
QNH
hPa
Press
MSL
hPa
Rain since
9am
mm
Dir  Spd
km/h
Gust
km/h
Spd
kts
Gust
kts
24/11:30pm 8.6 5.1 3.4 70 2.3 SW 11 20 6 11 1024.8 1024.0 0.0
24/11:00pm 9.1 4.7 4.7 74 2.0 SW 17 24 9 13 1024.5 1023.7 0.0
24/10:30pm 9.0 4.2 4.6 74 2.0 WSW 19 26 10 14 1024.3 1023.5 0.0
24/10:00pm 8.5 4.7 4.1 74 2.0 WSW 13 19 7 10 1024.5 1023.7 0.0
24/09:30pm 8.6 6.5 3.8 72 2.1 WSW 4 9 2 5 1024.4 1023.6 0.0
24/09:00pm 9.5 7.0 3.7 67 2.6 WNW 6 11 3 6 1024.0 1023.1 0.0
24/08:30pm 10.5 7.5 4.0 64 3.0 W 9 13 5 7 1023.5 1022.7 0.0
24/08:00pm 11.2 7.1 4.2 62 3.2 WSW 15 20 8 11 1023.2 1022.4 0.0
24/07:30pm 12.6 8.3 5.1 60 3.6 WSW 17 26 9 14 1023.0 1022.2 0.0
24/07:00pm 13.1 7.4 5.0 58 3.8 W 24 35 13 19 1022.5 1021.7 0.0
24/06:30pm 13.8 9.4 6.4 61 3.6 WSW 19 30 10 16 1022.2 1021.3 0.0
24/06:00pm 14.4 9.8 6.7 60 3.8 WSW 20 30 11 16 1021.8 1020.9 0.0
24/05:30pm 16.3 11.9 6.4 52 5.0 SW 19 30 10 16 1021.2 1020.4 0.0
24/05:00pm 16.7 12.7 6.5 51 5.1 WSW 17 26 9 14 1021.0 1020.2 0.0
24/04:30pm 17.5 12.9 6.7 49 5.5 WSW 20 30 11 16 1020.8 1020.0 0.0
24/04:00pm 16.7 13.7 6.2 50 5.2 WSW 11 30 6 16 1020.7 1019.9 0.0
24/03:30pm 16.2 11.4 5.8 50 5.1 WSW 20 28 11 15 1020.8 1020.0 0.0
24/03:00pm 16.5 11.6 5.2 47 5.5 W 20 35 11 19 1020.7 1019.9 0.0
24/02:30pm 17.6 11.8 4.6 42 6.3 W 24 33 13 18 1020.8 1020.0 0.0
24/02:00pm 17.7 11.9 4.3 41 6.5 WSW 24 35 13 19 1020.6 1019.8 0.0
24/01:30pm 18.5 12.4 5.0 41 6.7 W 26 46 14 25 1020.8 1020.0 0.0
24/01:00pm 17.9 12.3 5.2 43 6.3 WNW 24 48 13 26 1021.0 1020.2 0.0
24/12:30pm 16.9 9.7 5.2 46 5.7 WSW 32 44 17 24 1021.2 1020.4 0.0
24/12:00pm 16.3 9.0 4.7 46 5.6 W 32 50 17 27 1021.3 1020.5 0.0
24/11:39am 16.7 9.9 5.0 46 5.7 W 30 50 16 27 1021.2 1020.4 0.0
24/11:30am 16.8 10.9 5.7 48 5.5 W 26 43 14 23 1021.2 1020.4 0.0
24/11:00am 14.9 10.1 5.4 53 4.6 W 20 32 11 17 1021.4 1020.6 0.0
24/10:30am 13.7 9.5 5.6 58 3.9 WSW 17 28 9 15 1021.4 1020.6 0.0
24/10:00am 12.4 8.1 5.1 61 3.4 WSW 17 24 9 13 1021.7 1020.8 0.0
24/09:30am 11.9 8.3 5.1 63 3.2 W 13 20 7 11 1021.4 1020.6 0.0
24/09:00am 11.4 7.4 5.1 65 3.0 WSW 15 22 8 12 1021.2 1020.4 0.0
24/08:30am 11.4 8.3 5.7 68 2.7 W 11 15 6 8 1020.7 1019.9 0.0
24/08:00am 11.0 8.8 6.2 72 2.3 W 7 13 4 7 1020.6 1019.8 0.0
24/07:30am 10.7 8.2 6.5 75 2.0 W 9 15 5 8 1020.5 1019.7 0.0
24/07:00am 10.6 8.1 6.7 77 1.9 W 9 15 5 8 1020.3 1019.4 0.0
24/06:30am 10.6 7.7 6.7 77 1.9 W 11 17 6 9 1020.1 1019.2 0.0
24/06:00am 10.4 8.4 7.3 81 1.5 W 7 11 4 6 1019.8 1018.9 0.0
24/05:30am 10.5 8.6 7.7 83 1.4 W 7 9 4 5 1019.7 1018.8 0.0
24/05:00am 10.6 9.0 7.8 83 1.4 W 6 7 3 4 1019.5 1018.6 0.0
24/04:30am 10.6 8.8 8.0 84 1.3 WSW 7 11 4 6 1019.5 1018.6 0.0
24/04:00am 10.6 9.9 8.4 86 1.1 WNW 2 7 1 4 1019.5 1018.6 0.0
24/03:30am 10.5 8.9 8.8 89 0.9 SW 7 11 4 6 1019.7 1018.8 0.0
24/03:00am 9.8 7.6 7.7 87 1.0 W 9 13 5 7 1019.5 1018.6 0.0
24/02:30am 10.6 8.5 8.4 86 1.1 W 9 13 5 7 1019.5 1018.6 0.0
24/02:00am 11.5 9.9 8.9 84 1.3 W 7 11 4 6 1019.6 1018.7 0.0
24/01:30am 12.3 10.8 9.0 80 1.7 W 7 13 4 7 1020.0 1019.1 0.0
24/01:00am 12.1 10.7 8.8 80 1.7 WNW 6 9 3 5 1019.9 1019.0 0.0
24/12:30am 12.0 11.4 9.0 82 1.5 W 2 7 1 4 1019.9 1019.0 0.0
24/12:00am 12.0 10.6 8.7 80 1.7 W 6 7 3 4 1019.8 1018.9 0.0
 
Date/Time
EDT
Temp
°C
App
Temp
°C
Dew
Point
°C
Rel
Hum
%
Delta-T
°C
Wind Press
QNH
hPa
Press
MSL
hPa
Rain since
9am
mm
Dir  Spd
km/h
Gust
km/h
Spd
kts
Gust
kts
23/11:30pm 11.8 11.5 8.5 80 1.7 CALM 0 0 0 0 1019.6 1018.7 0.0
23/11:00pm 12.5 12.0 8.0 74 2.3 CALM 0 0 0 0 1019.3 1018.4 0.0
23/10:30pm 13.9 11.8 8.3 69 2.9 WSW 9 11 5 6 1019.1 1018.3 0.0
23/10:00pm 14.8 12.4 8.7 67 3.2 WSW 11 17 6 9 1018.8 1018.0 0.0
23/09:30pm 14.7 12.8 8.9 68 3.0 WSW 9 11 5 6 1018.6 1017.8 0.0
23/09:00pm 15.6 13.6 8.8 64 3.5 WSW 9 13 5 7 1018.0 1017.1 0.0
23/08:30pm 16.7 14.7 8.7 59 4.2 WSW 9 15 5 8 1017.2 1016.3 0.0
23/08:00pm 17.8 14.2 8.4 54 4.9 WSW 17 26 9 14 1016.3 1015.4 0.0
23/07:30pm 19.3 15.7 8.3 49 5.8 WSW 17 24 9 13 1015.9 1015.0 0.0
23/07:00pm 20.4 17.1 8.1 45 6.5 WSW 15 26 8 14 1015.3 1014.4 0.0
23/06:30pm 21.7 18.4 8.2 42 7.2 WSW 15 20 8 11 1014.8 1013.9 0.0
23/06:00pm 22.3 18.8 7.3 38 7.9 W 15 26 8 14 1014.3 1013.4 0.0
23/05:30pm 22.8 17.9 8.5 40 7.8 WSW 24 33 13 18 1014.0 1013.1 0.0
23/05:00pm 23.3 18.7 8.2 38 8.2 W 22 35 12 19 1013.7 1012.8 0.0
23/04:30pm 24.0 20.0 9.2 39 8.2 W 20 32 11 17 1013.3 1012.4 0.0
23/04:00pm 24.5 20.4 8.5 36 8.8 W 20 35 11 19 1013.1 1012.2 0.0
23/03:30pm 24.1 19.6 8.5 37 8.5 WSW 22 35 12 19 1012.8 1011.8 0.0
23/03:00pm 24.0 19.8 8.4 37 8.5 W 20 32 11 17 1012.8 1011.8 0.0
23/02:30pm 25.3 19.4 9.2 36 9.0 WNW 30 41 16 22 1012.7 1011.7 0.0
23/02:00pm 24.5 18.6 8.9 37 8.6 WNW 30 46 16 25 1012.1 1011.2 0.0
23/01:54pm 23.8 18.2 8.6 38 8.3 WNW 28 46 15 25 1012.1 1011.2 0.0
23/01:30pm 24.1 18.6 9.3 39 8.2 WNW 28 43 15 23 1011.7 1010.8 0.0
23/01:14pm 23.7 18.2 9.3 40 8.0 WNW 28 50 15 27 1011.6 1010.7 0.0
23/01:00pm 23.1 18.2 8.4 39 8.0 W 24 39 13 21 1011.9 1011.0 0.0
23/12:30pm 22.2 16.1 8.3 41 7.5 NW 30 39 16 21 1012.1 1011.2 0.0
23/12:00pm 23.4 18.1 8.3 38 8.2 WNW 26 39 14 21 1011.8 1010.9 0.0
23/11:30am 22.4 17.9 8.5 41 7.5 WNW 22 39 12 21 1011.6 1010.7 0.0
23/11:00am 20.6 15.7 8.3 45 6.6 NW 24 37 13 20 1011.3 1010.4 0.0
23/10:30am 19.5 13.4 8.2 48 6.0 WNW 30 39 16 21 1011.2 1010.3 0.0
23/10:00am 18.3 12.1 7.7 50 5.5 WNW 30 39 16 21 1011.1 1010.2 0.0
23/09:30am 18.4 12.6 8.1 51 5.4 WNW 28 43 15 23 1010.9 1009.9 0.0
23/09:15am 17.8 12.0 7.8 52 5.2 NW 28 46 15 25 1010.6 1009.6 0.0
23/09:00am 16.9 14.8 11.2 69 3.2 NNW 13 22 7 12 1010.4 1009.4 0.0
23/08:30am 16.1 12.8 11.7 75 2.4 N 20 30 11 16 1009.9 1009.0 0.0
23/08:00am 14.8 12.4 12.7 87 1.2 NNE 17 24 9 13 1009.6 1008.7 0.0
23/07:30am 13.8 11.6 12.0 89 1.0 N 15 22 8 12 1009.0 1008.0 0.0
23/07:00am 13.8 10.8 11.8 88 1.1 NNW 19 26 10 14 1008.7 1007.7 0.0
23/06:30am 14.3 10.6 11.6 84 1.5 N 22 32 12 17 1008.1 1007.1 0.0
23/06:00am 14.2 10.8 11.4 83 1.5 N 20 28 11 15 1007.9 1006.9 0.0
23/05:30am 14.4 11.1 10.8 79 1.9 N 19 28 10 15 1007.7 1006.8 0.0
23/05:00am 15.5 10.9 10.9 74 2.5 N 26 41 14 22 1007.4 1006.5 0.0
23/04:30am 15.6 10.5 10.6 72 2.7 N 28 39 15 21 1007.9 1006.9 0.0
23/04:00am 15.3 10.7 11.1 76 2.3 NNW 26 33 14 18 1008.3 1007.3 0.0
23/03:30am 15.7 9.8 11.1 74 2.5 N 33 44 18 24 1007.7 1006.8 0.0
23/03:00am 16.8 11.2 10.0 64 3.7 N 30 50 16 27 1007.3 1006.4 0.0
23/02:56am 17.2 11.9 9.9 62 3.9 N 28 50 15 27 1007.4 1006.5 0.0
23/02:53am 17.0 13.2 9.9 63 3.8 NNE 20 41 11 22 1007.4 1006.5 0.0
23/02:30am 15.4 14.2 11.6 78 2.1 NE 9 15 5 8 1008.2 1007.2 0.0
23/02:00am 15.6 14.3 11.4 76 2.3 NNE 9 15 5 8 1008.7 1007.7 0.0
23/01:30am 15.7 14.9 11.7 77 2.2 ENE 7 15 4 8 1008.7 1007.7 0.0
23/01:00am 15.8 15.0 11.8 77 2.2 NE 7 13 4 7 1009.4 1008.5 0.0
23/12:30am 15.0 13.5 11.8 81 1.8 E 11 13 6 7 1010.0 1009.1 0.0
23/12:00am 15.6 14.7 11.4 76 2.3 ENE 7 13 4 7 1010.8 1009.8 0.0
 
Date/Time
EDT
Temp
°C
App
Temp
°C
Dew
Point
°C
Rel
Hum
%
Delta-T
°C
Wind Press
QNH
hPa
Press
MSL
hPa
Rain since
9am
mm
Dir  Spd
km/h
Gust
km/h
Spd
kts
Gust
kts
22/11:30pm 16.4 13.2 11.3 72 2.8 N 19 32 10 17 1011.2 1010.3 0.0
22/11:00pm 16.1 13.0 10.2 68 3.2 N 17 26 9 14 1011.4 1010.5 0.0
22/10:30pm 16.7 13.4 9.6 63 3.8 NNW 17 26 9 14 1012.1 1011.2 0.0
22/10:00pm 16.8 14.8 10.0 64 3.7 N 11 24 6 13 1012.1 1011.2 0.0
22/09:30pm 16.9 13.8 7.3 53 4.9 NNE 13 24 7 13 1012.1 1011.2 0.0
22/09:00pm 16.6 13.8 7.0 53 4.9 NNE 11 17 6 9 1012.2 1011.3 0.0
22/08:30pm 16.5 13.9 7.7 56 4.5 NNE 11 17 6 9 1012.0 1011.1 0.0
22/08:00pm 18.9 14.9 8.3 50 5.6 N 19 28 10 15 1012.0 1011.1 0.0
22/07:30pm 20.0 14.8 8.7 48 6.1 NNW 26 33 14 18 1011.9 1011.0 0.0
22/07:00pm 20.7 14.0 7.3 42 7.0 N 32 43 17 23 1011.2 1010.3 0.0
22/06:30pm 21.9 16.0 7.3 39 7.7 N 28 41 15 22 1011.8 1010.9 0.0
22/06:00pm 21.3 14.6 7.2 40 7.4 N 32 46 17 25 1011.9 1011.0 0.0

Other Formats:

Comma delimited format used in spreadsheet applications
http://www.bom.gov.au/fwo/IDT60801/IDT60801.94960.axf

JavaScript Object Notation format (JSON) in row-major order
http://www.bom.gov.au/fwo/IDT60801/IDT60801.94960.json